Aérodrome :
LOGIN :

S'inscrire | Disclaimer

   EN    FR    IT 

 










Légende :    VFR   VFR Marginal   IFR   IFR Intensif   IFR Très Intensif
Visi : 
Plafond : 
>= 8 km
>= 3000ft
5 à 8 km
1000 à 3000 ft
1500m à 5 km
500 à 1000 ft
800 à 1500m
200 à 500 ft
< 800m
< 200 ft
Symboles :   Orages  Brouillard  Fortes neiges  Fortes précipitations  Vent > 20 kt
SIGMETs :   Divers  Orages  Givrage  Turbulence  Onde Orograph.  Cendres Volcan.







- Altitude de l'aérodrome : 25 ft
- Code IATA : TPS


LICT - Vincenzo Florio Trapani

DERNIER METAR :
  • 260255Z 12015KT 9999 FEW015 15/11 Q1013

METARs EXPIRÉS :
  • 260155Z 12016KT 9999 FEW015 15/12 Q1013 RMK FEW VIS MIN 9999 WIND THR13 12014KT BLU
  • 260055Z 14011KT 9999 FEW015 15/14 Q1014 RMK FEW VIS MIN 9999 WIND THR13 14011KT BLU

TAF TAF LICT
Valide du 26 à 03h jusqu'au 26 à 12h UTC


260200Z 2603/2612 15015KT 9999 FEW020
Pas de NOTAMs connus pour ce terrain.



MET'MAP, la Météo Aéronautique d'un coup d'oeil ! - Copyright ORBIFLY Décembre 2007 - Disclaimer

ORBIFLY MET'MAP TEAM :

Programmation & Développement : Alexandra Zaïnal
Conception & Développement : Baudouin d'Aumeries
Co-Programmation & Développement : Marc-Olivier Méhu
Soutien technique & logistique : Manuel Goepfert

Contact : metmap@orbifly.com




SOURCES & CREDITS :

   NOAA